sensor_id;sensor_type;location;lat;lon;timestamp;P1;durP1;ratioP1;P2;durP2;ratioP2
10299;SDS011;5195;48.562;9.192;2023-01-10T00:01:52;1.83;;;0.83;;
10299;SDS011;5195;48.562;9.192;2023-01-10T00:04:19;2.40;;;1.50;;
10299;SDS011;5195;48.562;9.192;2023-01-10T00:06:45;1.10;;;1.00;;
10299;SDS011;5195;48.562;9.192;2023-01-10T00:09:10;1.30;;;1.20;;
10299;SDS011;5195;48.562;9.192;2023-01-10T00:11:36;1.40;;;1.30;;
10299;SDS011;5195;48.562;9.192;2023-01-10T00:14:21;1.07;;;1.00;;
10299;SDS011;5195;48.562;9.192;2023-01-10T00:16:47;2.07;;;1.20;;
10299;SDS011;5195;48.562;9.192;2023-01-10T00:19:13;2.12;;;1.30;;
10299;SDS011;5195;48.562;9.192;2023-01-10T00:21:38;1.00;;;1.00;;
10299;SDS011;5195;48.562;9.192;2023-01-10T00:24:04;1.10;;;1.00;;
10299;SDS011;5195;48.562;9.192;2023-01-10T00:26:43;1.37;;;1.10;;
10299;SDS011;5195;48.562;9.192;2023-01-10T00:29:08;1.40;;;1.30;;
10299;SDS011;5195;48.562;9.192;2023-01-10T00:31:34;1.10;;;1.10;;
10299;SDS011;5195;48.562;9.192;2023-01-10T00:33:59;1.43;;;1.13;;
10299;SDS011;5195;48.562;9.192;2023-01-10T00:36:25;1.80;;;1.10;;
10299;SDS011;5195;48.562;9.192;2023-01-10T00:38:51;1.33;;;1.20;;
10299;SDS011;5195;48.562;9.192;2023-01-10T00:41:16;1.50;;;1.40;;
10299;SDS011;5195;48.562;9.192;2023-01-10T00:44:02;1.35;;;0.98;;
10299;SDS011;5195;48.562;9.192;2023-01-10T00:46:27;1.10;;;1.10;;
10299;SDS011;5195;48.562;9.192;2023-01-10T00:48:53;2.00;;;1.08;;
10299;SDS011;5195;48.562;9.192;2023-01-10T00:51:18;1.03;;;1.03;;
10299;SDS011;5195;48.562;9.192;2023-01-10T00:53:44;1.50;;;0.90;;
10299;SDS011;5195;48.562;9.192;2023-01-10T00:56:09;0.73;;;0.73;;
10299;SDS011;5195;48.562;9.192;2023-01-10T00:58:35;0.67;;;0.67;;
10299;SDS011;5195;48.562;9.192;2023-01-10T01:01:02;1.87;;;1.00;;
10299;SDS011;5195;48.562;9.192;2023-01-10T01:03:28;0.60;;;0.60;;
10299;SDS011;5195;48.562;9.192;2023-01-10T01:05:53;0.70;;;0.70;;
10299;SDS011;5195;48.562;9.192;2023-01-10T01:08:19;0.90;;;0.70;;
10299;SDS011;5195;48.562;9.192;2023-01-10T01:10:45;1.05;;;0.90;;
10299;SDS011;5195;48.562;9.192;2023-01-10T01:13:15;0.70;;;0.70;;
10299;SDS011;5195;48.562;9.192;2023-01-10T01:15:39;0.83;;;0.80;;
10299;SDS011;5195;48.562;9.192;2023-01-10T01:18:04;1.27;;;0.93;;
10299;SDS011;5195;48.562;9.192;2023-01-10T01:20:30;1.12;;;0.50;;
10299;SDS011;5195;48.562;9.192;2023-01-10T01:22:55;0.83;;;0.80;;
10299;SDS011;5195;48.562;9.192;2023-01-10T01:25:22;1.37;;;0.67;;
10299;SDS011;5195;48.562;9.192;2023-01-10T01:27:48;0.87;;;0.77;;
10299;SDS011;5195;48.562;9.192;2023-01-10T01:30:14;1.00;;;0.70;;
10299;SDS011;5195;48.562;9.192;2023-01-10T01:32:40;0.70;;;0.70;;
10299;SDS011;5195;48.562;9.192;2023-01-10T01:35:06;0.87;;;0.70;;
10299;SDS011;5195;48.562;9.192;2023-01-10T01:37:32;1.03;;;0.70;;
10299;SDS011;5195;48.562;9.192;2023-01-10T01:39:57;0.80;;;0.80;;
10299;SDS011;5195;48.562;9.192;2023-01-10T01:42:27;0.80;;;0.80;;
10299;SDS011;5195;48.562;9.192;2023-01-10T01:47:46;0.50;;;0.50;;
10299;SDS011;5195;48.562;9.192;2023-01-10T01:50:14;0.63;;;0.63;;
10299;SDS011;5195;48.562;9.192;2023-01-10T01:52:38;0.80;;;0.70;;
10299;SDS011;5195;48.562;9.192;2023-01-10T01:55:04;0.70;;;0.70;;
10299;SDS011;5195;48.562;9.192;2023-01-10T01:57:31;0.77;;;0.77;;
10299;SDS011;5195;48.562;9.192;2023-01-10T01:59:56;0.53;;;0.53;;
10299;SDS011;5195;48.562;9.192;2023-01-10T02:02:30;0.60;;;0.60;;
10299;SDS011;5195;48.562;9.192;2023-01-10T02:04:56;0.70;;;0.70;;
10299;SDS011;5195;48.562;9.192;2023-01-10T02:07:20;0.70;;;0.70;;
10299;SDS011;5195;48.562;9.192;2023-01-10T02:09:47;0.67;;;0.67;;
10299;SDS011;5195;48.562;9.192;2023-01-10T02:12:14;0.83;;;0.63;;
10299;SDS011;5195;48.562;9.192;2023-01-10T02:14:40;0.75;;;0.60;;
10299;SDS011;5195;48.562;9.192;2023-01-10T02:17:07;2.40;;;0.50;;
10299;SDS011;5195;48.562;9.192;2023-01-10T02:22:23;1.00;;;0.70;;
10299;SDS011;5195;48.562;9.192;2023-01-10T02:33:37;0.70;;;0.70;;
10299;SDS011;5195;48.562;9.192;2023-01-10T02:36:59;1.13;;;0.70;;
10299;SDS011;5195;48.562;9.192;2023-01-10T02:43:49;0.70;;;0.70;;
10299;SDS011;5195;48.562;9.192;2023-01-10T02:46:14;0.70;;;0.70;;
10299;SDS011;5195;48.562;9.192;2023-01-10T02:48:39;1.77;;;0.90;;
10299;SDS011;5195;48.562;9.192;2023-01-10T02:53:46;1.53;;;0.60;;
10299;SDS011;5195;48.562;9.192;2023-01-10T03:04:30;0.80;;;0.80;;
10299;SDS011;5195;48.562;9.192;2023-01-10T03:09:55;0.80;;;0.80;;
10299;SDS011;5195;48.562;9.192;2023-01-10T03:12:15;0.70;;;0.70;;
10299;SDS011;5195;48.562;9.192;2023-01-10T03:14:39;0.90;;;0.90;;
10299;SDS011;5195;48.562;9.192;2023-01-10T03:17:05;1.00;;;0.70;;
10299;SDS011;5195;48.562;9.192;2023-01-10T03:19:30;1.52;;;0.70;;
10299;SDS011;5195;48.562;9.192;2023-01-10T03:21:56;1.48;;;0.50;;
10299;SDS011;5195;48.562;9.192;2023-01-10T03:24:23;0.97;;;0.80;;
10299;SDS011;5195;48.562;9.192;2023-01-10T03:26:53;0.70;;;0.70;;
10299;SDS011;5195;48.562;9.192;2023-01-10T03:29:23;1.42;;;0.80;;
10299;SDS011;5195;48.562;9.192;2023-01-10T03:31:53;0.80;;;0.80;;
10299;SDS011;5195;48.562;9.192;2023-01-10T03:34:17;1.03;;;0.80;;
10299;SDS011;5195;48.562;9.192;2023-01-10T03:36:52;0.70;;;0.70;;
10299;SDS011;5195;48.562;9.192;2023-01-10T03:39:22;0.60;;;0.60;;
10299;SDS011;5195;48.562;9.192;2023-01-10T03:41:48;1.10;;;0.70;;
10299;SDS011;5195;48.562;9.192;2023-01-10T03:44:17;1.10;;;0.70;;
10299;SDS011;5195;48.562;9.192;2023-01-10T03:47:08;0.63;;;0.63;;
10299;SDS011;5195;48.562;9.192;2023-01-10T03:49:33;1.83;;;0.63;;
10299;SDS011;5195;48.562;9.192;2023-01-10T03:51:58;0.68;;;0.68;;
10299;SDS011;5195;48.562;9.192;2023-01-10T03:54:24;0.70;;;0.60;;
10299;SDS011;5195;48.562;9.192;2023-01-10T03:56:50;0.57;;;0.53;;
10299;SDS011;5195;48.562;9.192;2023-01-10T03:59:16;0.60;;;0.60;;
10299;SDS011;5195;48.562;9.192;2023-01-10T04:01:41;0.20;;;0.20;;
10299;SDS011;5195;48.562;9.192;2023-01-10T04:04:08;0.20;;;0.20;;
10299;SDS011;5195;48.562;9.192;2023-01-10T04:06:33;0.30;;;0.30;;
10299;SDS011;5195;48.562;9.192;2023-01-10T04:08:59;0.30;;;0.30;;
10299;SDS011;5195;48.562;9.192;2023-01-10T04:11:25;0.30;;;0.30;;
10299;SDS011;5195;48.562;9.192;2023-01-10T04:13:51;0.30;;;0.30;;
10299;SDS011;5195;48.562;9.192;2023-01-10T04:16:16;0.20;;;0.20;;
10299;SDS011;5195;48.562;9.192;2023-01-10T04:18:42;0.30;;;0.30;;
10299;SDS011;5195;48.562;9.192;2023-01-10T04:21:07;0.20;;;0.20;;
10299;SDS011;5195;48.562;9.192;2023-01-10T04:23:33;0.20;;;0.20;;
10299;SDS011;5195;48.562;9.192;2023-01-10T04:25:59;0.20;;;0.20;;
10299;SDS011;5195;48.562;9.192;2023-01-10T04:28:25;0.20;;;0.20;;
10299;SDS011;5195;48.562;9.192;2023-01-10T04:30:50;0.20;;;0.20;;
10299;SDS011;5195;48.562;9.192;2023-01-10T04:33:16;0.30;;;0.30;;
10299;SDS011;5195;48.562;9.192;2023-01-10T04:35:49;0.60;;;0.40;;
10299;SDS011;5195;48.562;9.192;2023-01-10T04:38:14;0.30;;;0.30;;
10299;SDS011;5195;48.562;9.192;2023-01-10T04:40:40;0.30;;;0.30;;
10299;SDS011;5195;48.562;9.192;2023-01-10T04:43:06;0.30;;;0.30;;
10299;SDS011;5195;48.562;9.192;2023-01-10T04:45:31;0.30;;;0.30;;
10299;SDS011;5195;48.562;9.192;2023-01-10T04:47:58;0.20;;;0.20;;
10299;SDS011;5195;48.562;9.192;2023-01-10T04:50:23;0.30;;;0.30;;
10299;SDS011;5195;48.562;9.192;2023-01-10T04:52:49;0.30;;;0.20;;
10299;SDS011;5195;48.562;9.192;2023-01-10T04:55:14;0.37;;;0.30;;
10299;SDS011;5195;48.562;9.192;2023-01-10T04:57:41;0.40;;;0.40;;
10299;SDS011;5195;48.562;9.192;2023-01-10T05:00:07;0.50;;;0.30;;
10299;SDS011;5195;48.562;9.192;2023-01-10T05:02:32;0.83;;;0.50;;
10299;SDS011;5195;48.562;9.192;2023-01-10T05:04:58;0.50;;;0.50;;
10299;SDS011;5195;48.562;9.192;2023-01-10T05:07:24;0.45;;;0.45;;
10299;SDS011;5195;48.562;9.192;2023-01-10T05:09:50;0.33;;;0.33;;
10299;SDS011;5195;48.562;9.192;2023-01-10T05:12:15;0.30;;;0.30;;
10299;SDS011;5195;48.562;9.192;2023-01-10T05:14:41;0.40;;;0.40;;
10299;SDS011;5195;48.562;9.192;2023-01-10T05:17:06;0.97;;;0.50;;
10299;SDS011;5195;48.562;9.192;2023-01-10T05:19:32;2.80;;;0.60;;
10299;SDS011;5195;48.562;9.192;2023-01-10T05:21:57;0.80;;;0.80;;
10299;SDS011;5195;48.562;9.192;2023-01-10T05:24:23;2.20;;;0.93;;
10299;SDS011;5195;48.562;9.192;2023-01-10T05:26:49;2.43;;;0.70;;
10299;SDS011;5195;48.562;9.192;2023-01-10T05:29:14;2.22;;;1.00;;
10299;SDS011;5195;48.562;9.192;2023-01-10T05:31:40;1.70;;;1.15;;
10299;SDS011;5195;48.562;9.192;2023-01-10T05:34:06;2.10;;;1.10;;
10299;SDS011;5195;48.562;9.192;2023-01-10T05:36:32;0.95;;;0.90;;
10299;SDS011;5195;48.562;9.192;2023-01-10T05:38:57;1.00;;;0.70;;
10299;SDS011;5195;48.562;9.192;2023-01-10T05:41:23;1.60;;;1.00;;
10299;SDS011;5195;48.562;9.192;2023-01-10T05:43:48;1.85;;;0.85;;
10299;SDS011;5195;48.562;9.192;2023-01-10T05:46:14;1.37;;;1.00;;
10299;SDS011;5195;48.562;9.192;2023-01-10T05:48:39;2.10;;;1.20;;
10299;SDS011;5195;48.562;9.192;2023-01-10T05:51:06;1.60;;;0.90;;
10299;SDS011;5195;48.562;9.192;2023-01-10T05:53:32;2.37;;;1.20;;
10299;SDS011;5195;48.562;9.192;2023-01-10T05:55:58;1.67;;;0.93;;
10299;SDS011;5195;48.562;9.192;2023-01-10T05:58:24;2.43;;;1.10;;
10299;SDS011;5195;48.562;9.192;2023-01-10T06:00:49;2.30;;;1.20;;
10299;SDS011;5195;48.562;9.192;2023-01-10T06:03:15;2.57;;;1.47;;
10299;SDS011;5195;48.562;9.192;2023-01-10T06:05:40;2.25;;;1.20;;
10299;SDS011;5195;48.562;9.192;2023-01-10T06:08:06;2.45;;;1.25;;
10299;SDS011;5195;48.562;9.192;2023-01-10T06:10:31;3.70;;;1.60;;
10299;SDS011;5195;48.562;9.192;2023-01-10T06:12:57;3.33;;;1.40;;
10299;SDS011;5195;48.562;9.192;2023-01-10T06:15:22;1.40;;;1.00;;
10299;SDS011;5195;48.562;9.192;2023-01-10T06:17:48;2.62;;;1.70;;
10299;SDS011;5195;48.562;9.192;2023-01-10T06:20:13;3.60;;;1.70;;
10299;SDS011;5195;48.562;9.192;2023-01-10T06:22:40;2.53;;;1.73;;
10299;SDS011;5195;48.562;9.192;2023-01-10T06:25:05;3.78;;;1.75;;
10299;SDS011;5195;48.562;9.192;2023-01-10T06:27:31;5.97;;;1.60;;
10299;SDS011;5195;48.562;9.192;2023-01-10T06:29:56;6.93;;;2.90;;
10299;SDS011;5195;48.562;9.192;2023-01-10T06:32:22;6.57;;;3.30;;
10299;SDS011;5195;48.562;9.192;2023-01-10T06:34:48;5.33;;;2.67;;
10299;SDS011;5195;48.562;9.192;2023-01-10T06:37:14;4.33;;;2.17;;
10299;SDS011;5195;48.562;9.192;2023-01-10T06:39:40;5.00;;;2.42;;
10299;SDS011;5195;48.562;9.192;2023-01-10T06:42:05;5.53;;;2.63;;
10299;SDS011;5195;48.562;9.192;2023-01-10T06:44:31;5.62;;;2.12;;
10299;SDS011;5195;48.562;9.192;2023-01-10T06:50:00;3.87;;;1.90;;
10299;SDS011;5195;48.562;9.192;2023-01-10T06:52:25;3.77;;;2.10;;
10299;SDS011;5195;48.562;9.192;2023-01-10T06:54:51;4.90;;;2.10;;
10299;SDS011;5195;48.562;9.192;2023-01-10T06:57:16;3.50;;;2.05;;
10299;SDS011;5195;48.562;9.192;2023-01-10T06:59:42;5.80;;;2.30;;
10299;SDS011;5195;48.562;9.192;2023-01-10T07:02:08;5.83;;;2.40;;
10299;SDS011;5195;48.562;9.192;2023-01-10T07:04:34;3.40;;;2.05;;
10299;SDS011;5195;48.562;9.192;2023-01-10T07:07:00;4.03;;;2.12;;
10299;SDS011;5195;48.562;9.192;2023-01-10T07:09:26;5.30;;;2.17;;
10299;SDS011;5195;48.562;9.192;2023-01-10T07:11:52;3.20;;;2.30;;
10299;SDS011;5195;48.562;9.192;2023-01-10T07:14:17;4.93;;;2.12;;
10299;SDS011;5195;48.562;9.192;2023-01-10T07:16:43;3.97;;;2.60;;
10299;SDS011;5195;48.562;9.192;2023-01-10T07:19:10;2.13;;;2.00;;
10299;SDS011;5195;48.562;9.192;2023-01-10T07:21:35;4.43;;;2.50;;
10299;SDS011;5195;48.562;9.192;2023-01-10T07:24:02;6.77;;;2.53;;
10299;SDS011;5195;48.562;9.192;2023-01-10T07:26:27;4.63;;;2.20;;
10299;SDS011;5195;48.562;9.192;2023-01-10T07:28:53;2.33;;;1.80;;
10299;SDS011;5195;48.562;9.192;2023-01-10T07:31:19;3.73;;;2.57;;
10299;SDS011;5195;48.562;9.192;2023-01-10T07:33:44;4.70;;;1.98;;
10299;SDS011;5195;48.562;9.192;2023-01-10T07:36:10;4.63;;;2.07;;
10299;SDS011;5195;48.562;9.192;2023-01-10T07:38:36;7.10;;;2.67;;
10299;SDS011;5195;48.562;9.192;2023-01-10T07:41:01;6.12;;;2.67;;
10299;SDS011;5195;48.562;9.192;2023-01-10T07:43:26;2.97;;;2.33;;
10299;SDS011;5195;48.562;9.192;2023-01-10T07:45:52;4.93;;;2.17;;
10299;SDS011;5195;48.562;9.192;2023-01-10T07:48:17;3.33;;;2.07;;
10299;SDS011;5195;48.562;9.192;2023-01-10T07:50:43;4.37;;;2.05;;
10299;SDS011;5195;48.562;9.192;2023-01-10T07:53:09;3.87;;;2.30;;
10299;SDS011;5195;48.562;9.192;2023-01-10T07:55:35;3.92;;;2.50;;
10299;SDS011;5195;48.562;9.192;2023-01-10T07:58:00;4.82;;;2.42;;
10299;SDS011;5195;48.562;9.192;2023-01-10T08:00:26;6.15;;;2.20;;
10299;SDS011;5195;48.562;9.192;2023-01-10T08:02:52;4.50;;;2.23;;
10299;SDS011;5195;48.562;9.192;2023-01-10T08:05:17;3.65;;;2.50;;
10299;SDS011;5195;48.562;9.192;2023-01-10T08:07:43;4.07;;;2.17;;
10299;SDS011;5195;48.562;9.192;2023-01-10T08:10:09;3.60;;;2.00;;
10299;SDS011;5195;48.562;9.192;2023-01-10T08:12:35;3.73;;;2.37;;
10299;SDS011;5195;48.562;9.192;2023-01-10T08:15:01;3.47;;;2.40;;
10299;SDS011;5195;48.562;9.192;2023-01-10T08:17:26;6.50;;;2.97;;
10299;SDS011;5195;48.562;9.192;2023-01-10T08:19:52;6.80;;;2.78;;
10299;SDS011;5195;48.562;9.192;2023-01-10T08:22:18;5.05;;;3.25;;
10299;SDS011;5195;48.562;9.192;2023-01-10T08:24:43;5.50;;;2.87;;
10299;SDS011;5195;48.562;9.192;2023-01-10T08:27:09;2.90;;;2.30;;
10299;SDS011;5195;48.562;9.192;2023-01-10T08:29:34;4.03;;;2.53;;
10299;SDS011;5195;48.562;9.192;2023-01-10T08:32:00;4.30;;;2.47;;
10299;SDS011;5195;48.562;9.192;2023-01-10T08:34:26;5.50;;;3.03;;
10299;SDS011;5195;48.562;9.192;2023-01-10T08:36:51;3.80;;;2.40;;
10299;SDS011;5195;48.562;9.192;2023-01-10T08:39:18;3.58;;;3.28;;
10299;SDS011;5195;48.562;9.192;2023-01-10T08:41:43;2.90;;;2.60;;
10299;SDS011;5195;48.562;9.192;2023-01-10T08:44:09;3.87;;;2.40;;
10299;SDS011;5195;48.562;9.192;2023-01-10T08:46:34;4.30;;;2.28;;
10299;SDS011;5195;48.562;9.192;2023-01-10T08:49:00;4.40;;;2.57;;
10299;SDS011;5195;48.562;9.192;2023-01-10T08:51:25;6.63;;;2.70;;
10299;SDS011;5195;48.562;9.192;2023-01-10T08:53:52;2.77;;;2.33;;
10299;SDS011;5195;48.562;9.192;2023-01-10T08:56:17;5.10;;;2.93;;
10299;SDS011;5195;48.562;9.192;2023-01-10T08:58:48;4.40;;;2.70;;
10299;SDS011;5195;48.562;9.192;2023-01-10T09:01:14;4.50;;;2.90;;
10299;SDS011;5195;48.562;9.192;2023-01-10T09:03:39;4.50;;;2.43;;
10299;SDS011;5195;48.562;9.192;2023-01-10T09:06:05;5.70;;;2.73;;
10299;SDS011;5195;48.562;9.192;2023-01-10T09:08:31;3.93;;;2.53;;
10299;SDS011;5195;48.562;9.192;2023-01-10T09:11:00;4.00;;;2.50;;
10299;SDS011;5195;48.562;9.192;2023-01-10T09:13:25;4.53;;;2.70;;
10299;SDS011;5195;48.562;9.192;2023-01-10T09:15:51;2.50;;;2.30;;
10299;SDS011;5195;48.562;9.192;2023-01-10T09:18:17;5.07;;;2.55;;
10299;SDS011;5195;48.562;9.192;2023-01-10T09:20:43;5.10;;;2.30;;
10299;SDS011;5195;48.562;9.192;2023-01-10T09:23:10;5.33;;;2.20;;
10299;SDS011;5195;48.562;9.192;2023-01-10T09:25:35;5.05;;;2.20;;
10299;SDS011;5195;48.562;9.192;2023-01-10T09:28:01;5.50;;;2.30;;
10299;SDS011;5195;48.562;9.192;2023-01-10T09:30:27;4.33;;;2.27;;
10299;SDS011;5195;48.562;9.192;2023-01-10T09:32:52;3.75;;;2.47;;
10299;SDS011;5195;48.562;9.192;2023-01-10T09:35:17;3.63;;;2.20;;
10299;SDS011;5195;48.562;9.192;2023-01-10T09:37:43;3.60;;;2.07;;
10299;SDS011;5195;48.562;9.192;2023-01-10T09:40:09;3.65;;;2.17;;
10299;SDS011;5195;48.562;9.192;2023-01-10T09:47:54;4.93;;;2.30;;
10299;SDS011;5195;48.562;9.192;2023-01-10T09:53:08;3.90;;;2.28;;
10299;SDS011;5195;48.562;9.192;2023-01-10T09:55:32;4.35;;;2.30;;
10299;SDS011;5195;48.562;9.192;2023-01-10T09:57:56;4.50;;;2.20;;
10299;SDS011;5195;48.562;9.192;2023-01-10T10:00:26;2.08;;;1.70;;
10299;SDS011;5195;48.562;9.192;2023-01-10T10:02:52;2.57;;;1.90;;
10299;SDS011;5195;48.562;9.192;2023-01-10T10:07:49;5.27;;;2.03;;
10299;SDS011;5195;48.562;9.192;2023-01-10T10:10:15;2.30;;;2.07;;
10299;SDS011;5195;48.562;9.192;2023-01-10T10:12:54;4.28;;;2.08;;
10299;SDS011;5195;48.562;9.192;2023-01-10T10:15:52;3.23;;;2.03;;
10299;SDS011;5195;48.562;9.192;2023-01-10T10:21:10;2.87;;;1.60;;
10299;SDS011;5195;48.562;9.192;2023-01-10T10:23:45;3.23;;;1.90;;
10299;SDS011;5195;48.562;9.192;2023-01-10T10:26:06;4.53;;;1.77;;
10299;SDS011;5195;48.562;9.192;2023-01-10T10:34:33;5.20;;;2.03;;
10299;SDS011;5195;48.562;9.192;2023-01-10T10:39:55;3.93;;;2.07;;
10299;SDS011;5195;48.562;9.192;2023-01-10T10:42:19;2.70;;;1.60;;
10299;SDS011;5195;48.562;9.192;2023-01-10T10:44:46;2.60;;;1.70;;
10299;SDS011;5195;48.562;9.192;2023-01-10T10:47:15;3.70;;;1.80;;
10299;SDS011;5195;48.562;9.192;2023-01-10T10:52:26;3.83;;;1.80;;
10299;SDS011;5195;48.562;9.192;2023-01-10T10:54:51;3.70;;;1.60;;
10299;SDS011;5195;48.562;9.192;2023-01-10T10:57:17;3.15;;;1.83;;
10299;SDS011;5195;48.562;9.192;2023-01-10T10:59:43;3.53;;;1.80;;
10299;SDS011;5195;48.562;9.192;2023-01-10T11:02:18;4.07;;;1.70;;
10299;SDS011;5195;48.562;9.192;2023-01-10T11:04:38;2.77;;;1.53;;
10299;SDS011;5195;48.562;9.192;2023-01-10T11:07:06;3.87;;;1.80;;
10299;SDS011;5195;48.562;9.192;2023-01-10T11:09:32;4.37;;;1.40;;
10299;SDS011;5195;48.562;9.192;2023-01-10T11:12:18;2.67;;;1.60;;
10299;SDS011;5195;48.562;9.192;2023-01-10T11:14:47;4.45;;;1.55;;
10299;SDS011;5195;48.562;9.192;2023-01-10T11:17:19;4.62;;;1.60;;
10299;SDS011;5195;48.562;9.192;2023-01-10T11:20:03;5.03;;;2.10;;
10299;SDS011;5195;48.562;9.192;2023-01-10T11:22:28;3.37;;;1.87;;
10299;SDS011;5195;48.562;9.192;2023-01-10T11:24:54;3.50;;;1.50;;
10299;SDS011;5195;48.562;9.192;2023-01-10T11:27:20;2.55;;;1.30;;
10299;SDS011;5195;48.562;9.192;2023-01-10T11:29:45;2.47;;;1.20;;
10299;SDS011;5195;48.562;9.192;2023-01-10T11:32:14;4.37;;;1.63;;
10299;SDS011;5195;48.562;9.192;2023-01-10T11:34:38;1.87;;;1.40;;
10299;SDS011;5195;48.562;9.192;2023-01-10T11:37:17;2.03;;;1.48;;
10299;SDS011;5195;48.562;9.192;2023-01-10T11:39:30;2.20;;;1.37;;
10299;SDS011;5195;48.562;9.192;2023-01-10T11:41:55;1.73;;;1.10;;
10299;SDS011;5195;48.562;9.192;2023-01-10T11:44:22;2.10;;;1.30;;
10299;SDS011;5195;48.562;9.192;2023-01-10T11:46:50;1.87;;;1.17;;
10299;SDS011;5195;48.562;9.192;2023-01-10T11:49:19;2.43;;;1.37;;
10299;SDS011;5195;48.562;9.192;2023-01-10T11:51:46;3.22;;;1.60;;
10299;SDS011;5195;48.562;9.192;2023-01-10T11:54:10;4.87;;;1.53;;
10299;SDS011;5195;48.562;9.192;2023-01-10T11:56:36;2.30;;;1.10;;
10299;SDS011;5195;48.562;9.192;2023-01-10T11:59:16;2.20;;;1.33;;
10299;SDS011;5195;48.562;9.192;2023-01-10T12:01:55;4.90;;;1.80;;
10299;SDS011;5195;48.562;9.192;2023-01-10T12:04:19;3.13;;;1.40;;
10299;SDS011;5195;48.562;9.192;2023-01-10T12:06:45;2.87;;;1.20;;
10299;SDS011;5195;48.562;9.192;2023-01-10T12:12:03;2.53;;;1.20;;
10299;SDS011;5195;48.562;9.192;2023-01-10T12:14:30;2.90;;;1.70;;
10299;SDS011;5195;48.562;9.192;2023-01-10T12:17:00;3.07;;;1.23;;
10299;SDS011;5195;48.562;9.192;2023-01-10T12:19:27;3.50;;;1.53;;
10299;SDS011;5195;48.562;9.192;2023-01-10T12:21:55;2.10;;;1.60;;
10299;SDS011;5195;48.562;9.192;2023-01-10T12:24:24;5.23;;;1.23;;
10299;SDS011;5195;48.562;9.192;2023-01-10T12:26:49;4.23;;;1.50;;
10299;SDS011;5195;48.562;9.192;2023-01-10T12:29:15;3.12;;;1.90;;
10299;SDS011;5195;48.562;9.192;2023-01-10T12:31:40;3.12;;;1.42;;
10299;SDS011;5195;48.562;9.192;2023-01-10T12:34:14;3.23;;;1.63;;
10299;SDS011;5195;48.562;9.192;2023-01-10T12:39:31;2.10;;;1.23;;
10299;SDS011;5195;48.562;9.192;2023-01-10T12:41:58;2.00;;;1.53;;
10299;SDS011;5195;48.562;9.192;2023-01-10T12:44:50;5.17;;;1.73;;
10299;SDS011;5195;48.562;9.192;2023-01-10T12:47:21;4.17;;;2.13;;
10299;SDS011;5195;48.562;9.192;2023-01-10T12:49:56;1.93;;;1.40;;
10299;SDS011;5195;48.562;9.192;2023-01-10T12:52:26;3.78;;;1.85;;
10299;SDS011;5195;48.562;9.192;2023-01-10T12:54:49;2.30;;;1.42;;
10299;SDS011;5195;48.562;9.192;2023-01-10T12:57:26;4.97;;;1.67;;
10299;SDS011;5195;48.562;9.192;2023-01-10T12:59:50;2.27;;;1.40;;
10299;SDS011;5195;48.562;9.192;2023-01-10T13:02:16;2.80;;;1.40;;
10299;SDS011;5195;48.562;9.192;2023-01-10T13:04:41;2.53;;;1.30;;
10299;SDS011;5195;48.562;9.192;2023-01-10T13:07:09;3.60;;;1.50;;
10299;SDS011;5195;48.562;9.192;2023-01-10T13:09:32;3.00;;;1.40;;
10299;SDS011;5195;48.562;9.192;2023-01-10T13:14:54;2.13;;;1.30;;
10299;SDS011;5195;48.562;9.192;2023-01-10T13:17:24;3.03;;;1.43;;
10299;SDS011;5195;48.562;9.192;2023-01-10T13:19:44;3.08;;;1.25;;
10299;SDS011;5195;48.562;9.192;2023-01-10T13:22:17;3.00;;;1.17;;
10299;SDS011;5195;48.562;9.192;2023-01-10T13:24:43;5.60;;;1.50;;
10299;SDS011;5195;48.562;9.192;2023-01-10T13:27:14;2.30;;;1.20;;
10299;SDS011;5195;48.562;9.192;2023-01-10T13:29:40;3.47;;;1.20;;
10299;SDS011;5195;48.562;9.192;2023-01-10T13:32:17;3.23;;;1.43;;
10299;SDS011;5195;48.562;9.192;2023-01-10T13:34:40;3.23;;;1.60;;
10299;SDS011;5195;48.562;9.192;2023-01-10T13:37:10;3.20;;;1.77;;
10299;SDS011;5195;48.562;9.192;2023-01-10T13:39:42;2.40;;;1.37;;
10299;SDS011;5195;48.562;9.192;2023-01-10T13:52:47;3.58;;;1.58;;
10299;SDS011;5195;48.562;9.192;2023-01-10T13:57:53;4.00;;;1.90;;
10299;SDS011;5195;48.562;9.192;2023-01-10T14:06:55;2.75;;;1.40;;
10299;SDS011;5195;48.562;9.192;2023-01-10T14:08:54;3.60;;;1.73;;
10299;SDS011;5195;48.562;9.192;2023-01-10T14:11:22;3.50;;;1.37;;
10299;SDS011;5195;48.562;9.192;2023-01-10T14:13:49;2.33;;;1.30;;
10299;SDS011;5195;48.562;9.192;2023-01-10T14:16:27;3.37;;;1.30;;
10299;SDS011;5195;48.562;9.192;2023-01-10T14:18:55;3.20;;;1.50;;
10299;SDS011;5195;48.562;9.192;2023-01-10T14:21:22;2.90;;;1.75;;
10299;SDS011;5195;48.562;9.192;2023-01-10T14:23:49;2.37;;;1.30;;
10299;SDS011;5195;48.562;9.192;2023-01-10T14:26:27;10.83;;;8.00;;
10299;SDS011;5195;48.562;9.192;2023-01-10T14:28:50;7.37;;;5.00;;
10299;SDS011;5195;48.562;9.192;2023-01-10T14:31:19;3.50;;;1.70;;
10299;SDS011;5195;48.562;9.192;2023-01-10T14:33:44;7.90;;;7.00;;
10299;SDS011;5195;48.562;9.192;2023-01-10T14:36:17;6.57;;;4.87;;
10299;SDS011;5195;48.562;9.192;2023-01-10T14:38:38;5.60;;;5.10;;
10299;SDS011;5195;48.562;9.192;2023-01-10T14:41:18;14.30;;;11.10;;
10299;SDS011;5195;48.562;9.192;2023-01-10T14:43:44;20.58;;;16.58;;
10299;SDS011;5195;48.562;9.192;2023-01-10T14:48:45;5.33;;;4.73;;
10299;SDS011;5195;48.562;9.192;2023-01-10T14:51:18;5.57;;;5.03;;
10299;SDS011;5195;48.562;9.192;2023-01-10T14:54:00;6.10;;;3.03;;
10299;SDS011;5195;48.562;9.192;2023-01-10T14:56:26;6.25;;;4.07;;
10299;SDS011;5195;48.562;9.192;2023-01-10T14:58:50;22.47;;;14.93;;
10299;SDS011;5195;48.562;9.192;2023-01-10T15:01:19;5.07;;;3.90;;
10299;SDS011;5195;48.562;9.192;2023-01-10T15:03:45;4.87;;;2.70;;
10299;SDS011;5195;48.562;9.192;2023-01-10T15:06:10;6.62;;;3.70;;
10299;SDS011;5195;48.562;9.192;2023-01-10T15:08:36;4.00;;;3.53;;
10299;SDS011;5195;48.562;9.192;2023-01-10T15:11:02;6.30;;;3.30;;
10299;SDS011;5195;48.562;9.192;2023-01-10T15:13:27;5.50;;;3.28;;
10299;SDS011;5195;48.562;9.192;2023-01-10T15:15:53;5.37;;;1.90;;
10299;SDS011;5195;48.562;9.192;2023-01-10T15:18:27;4.30;;;1.87;;
10299;SDS011;5195;48.562;9.192;2023-01-10T15:20:51;5.43;;;1.77;;
10299;SDS011;5195;48.562;9.192;2023-01-10T15:23:17;2.83;;;1.40;;
10299;SDS011;5195;48.562;9.192;2023-01-10T15:25:42;3.00;;;1.55;;
10299;SDS011;5195;48.562;9.192;2023-01-10T15:28:15;3.95;;;1.67;;
10299;SDS011;5195;48.562;9.192;2023-01-10T15:30:40;3.53;;;1.87;;
10299;SDS011;5195;48.562;9.192;2023-01-10T15:33:14;2.70;;;1.70;;
10299;SDS011;5195;48.562;9.192;2023-01-10T15:35:39;4.20;;;1.67;;
10299;SDS011;5195;48.562;9.192;2023-01-10T15:38:05;2.93;;;1.77;;
10299;SDS011;5195;48.562;9.192;2023-01-10T15:40:31;5.83;;;2.10;;
10299;SDS011;5195;48.562;9.192;2023-01-10T15:45:43;3.43;;;2.00;;
10299;SDS011;5195;48.562;9.192;2023-01-10T15:48:33;4.43;;;1.83;;
10299;SDS011;5195;48.562;9.192;2023-01-10T15:50:57;3.63;;;1.83;;
10299;SDS011;5195;48.562;9.192;2023-01-10T15:53:48;2.47;;;1.97;;
10299;SDS011;5195;48.562;9.192;2023-01-10T15:55:49;4.07;;;2.40;;
10299;SDS011;5195;48.562;9.192;2023-01-10T15:58:21;4.43;;;2.53;;
10299;SDS011;5195;48.562;9.192;2023-01-10T16:00:54;3.47;;;2.30;;
10299;SDS011;5195;48.562;9.192;2023-01-10T16:03:32;3.37;;;1.87;;
10299;SDS011;5195;48.562;9.192;2023-01-10T16:06:02;6.55;;;2.95;;
10299;SDS011;5195;48.562;9.192;2023-01-10T16:08:31;4.67;;;2.60;;
10299;SDS011;5195;48.562;9.192;2023-01-10T16:11:02;5.43;;;4.00;;
10299;SDS011;5195;48.562;9.192;2023-01-10T16:13:26;4.07;;;2.13;;
10299;SDS011;5195;48.562;9.192;2023-01-10T16:15:52;4.37;;;2.60;;
10299;SDS011;5195;48.562;9.192;2023-01-10T16:18:17;3.03;;;2.73;;
10299;SDS011;5195;48.562;9.192;2023-01-10T16:20:43;3.93;;;3.00;;
10299;SDS011;5195;48.562;9.192;2023-01-10T16:23:12;6.20;;;3.10;;
10299;SDS011;5195;48.562;9.192;2023-01-10T16:25:38;4.78;;;3.10;;
10299;SDS011;5195;48.562;9.192;2023-01-10T16:28:04;14.90;;;11.23;;
10299;SDS011;5195;48.562;9.192;2023-01-10T16:30:30;5.37;;;4.73;;
10299;SDS011;5195;48.562;9.192;2023-01-10T16:32:54;7.33;;;3.80;;
10299;SDS011;5195;48.562;9.192;2023-01-10T16:35:20;4.65;;;3.87;;